sensor_id;sensor_type;location;lat;lon;timestamp;temperature;humidity
4651;DHT22;2338;49.602;8.722;2022-10-01T00:01:16;8.40;99.90
4651;DHT22;2338;49.602;8.722;2022-10-01T00:04:01;8.40;99.90
4651;DHT22;2338;49.602;8.722;2022-10-01T00:06:48;8.40;99.90
4651;DHT22;2338;49.602;8.722;2022-10-01T00:09:34;8.40;99.90
4651;DHT22;2338;49.602;8.722;2022-10-01T00:12:19;8.50;99.90
4651;DHT22;2338;49.602;8.722;2022-10-01T00:15:06;8.50;99.90
4651;DHT22;2338;49.602;8.722;2022-10-01T00:17:53;8.50;99.90
4651;DHT22;2338;49.602;8.722;2022-10-01T00:20:39;8.40;99.90
4651;DHT22;2338;49.602;8.722;2022-10-01T00:23:27;8.40;99.90
4651;DHT22;2338;49.602;8.722;2022-10-01T00:26:15;8.30;99.90
4651;DHT22;2338;49.602;8.722;2022-10-01T00:29:03;8.30;99.90
4651;DHT22;2338;49.602;8.722;2022-10-01T00:31:48;8.40;99.90
4651;DHT22;2338;49.602;8.722;2022-10-01T00:34:34;8.40;99.90
4651;DHT22;2338;49.602;8.722;2022-10-01T00:37:20;8.40;99.90
4651;DHT22;2338;49.602;8.722;2022-10-01T00:40:08;8.40;99.90
4651;DHT22;2338;49.602;8.722;2022-10-01T00:42:53;8.40;99.90
4651;DHT22;2338;49.602;8.722;2022-10-01T00:45:39;8.30;99.90
4651;DHT22;2338;49.602;8.722;2022-10-01T00:48:27;8.30;99.90
4651;DHT22;2338;49.602;8.722;2022-10-01T00:51:14;8.20;99.90
4651;DHT22;2338;49.602;8.722;2022-10-01T00:54:05;8.20;99.90
4651;DHT22;2338;49.602;8.722;2022-10-01T00:56:56;8.20;99.90
4651;DHT22;2338;49.602;8.722;2022-10-01T00:59:42;8.20;99.90
4651;DHT22;2338;49.602;8.722;2022-10-01T01:02:29;8.20;99.90
4651;DHT22;2338;49.602;8.722;2022-10-01T01:05:14;8.30;99.90
4651;DHT22;2338;49.602;8.722;2022-10-01T01:08:01;8.40;99.90
4651;DHT22;2338;49.602;8.722;2022-10-01T01:10:52;8.50;99.90
4651;DHT22;2338;49.602;8.722;2022-10-01T01:13:47;8.50;99.90
4651;DHT22;2338;49.602;8.722;2022-10-01T01:16:41;8.50;99.90
4651;DHT22;2338;49.602;8.722;2022-10-01T01:19:41;8.50;99.90
4651;DHT22;2338;49.602;8.722;2022-10-01T01:22:33;8.60;99.90
4651;DHT22;2338;49.602;8.722;2022-10-01T01:25:27;8.60;99.90
4651;DHT22;2338;49.602;8.722;2022-10-01T01:28:22;8.70;99.90
4651;DHT22;2338;49.602;8.722;2022-10-01T01:31:11;8.70;99.90
4651;DHT22;2338;49.602;8.722;2022-10-01T01:33:59;8.70;99.90
4651;DHT22;2338;49.602;8.722;2022-10-01T01:36:52;8.80;99.90
4651;DHT22;2338;49.602;8.722;2022-10-01T01:39:43;8.90;99.90
4651;DHT22;2338;49.602;8.722;2022-10-01T01:42:31;8.90;99.90
4651;DHT22;2338;49.602;8.722;2022-10-01T01:45:25;9.00;99.90
4651;DHT22;2338;49.602;8.722;2022-10-01T01:48:12;9.10;99.90
4651;DHT22;2338;49.602;8.722;2022-10-01T01:51:05;9.60;99.90
4651;DHT22;2338;49.602;8.722;2022-10-01T01:53:53;9.90;99.90
4651;DHT22;2338;49.602;8.722;2022-10-01T01:56:38;10.10;99.90
4651;DHT22;2338;49.602;8.722;2022-10-01T01:59:26;10.40;99.90
4651;DHT22;2338;49.602;8.722;2022-10-01T02:02:16;10.60;99.90
4651;DHT22;2338;49.602;8.722;2022-10-01T02:05:05;10.80;99.90
4651;DHT22;2338;49.602;8.722;2022-10-01T02:08:06;11.00;99.90
4651;DHT22;2338;49.602;8.722;2022-10-01T02:11:07;11.10;99.90
4651;DHT22;2338;49.602;8.722;2022-10-01T02:14:03;11.10;99.90
4651;DHT22;2338;49.602;8.722;2022-10-01T02:16:53;11.10;99.90
4651;DHT22;2338;49.602;8.722;2022-10-01T02:19:47;11.10;99.90
4651;DHT22;2338;49.602;8.722;2022-10-01T02:22:41;11.20;99.90
4651;DHT22;2338;49.602;8.722;2022-10-01T02:25:32;11.20;99.90
4651;DHT22;2338;49.602;8.722;2022-10-01T02:28:21;11.20;99.90
4651;DHT22;2338;49.602;8.722;2022-10-01T02:31:09;11.20;99.90
4651;DHT22;2338;49.602;8.722;2022-10-01T02:33:57;11.20;99.90
4651;DHT22;2338;49.602;8.722;2022-10-01T02:36:45;11.20;99.90
4651;DHT22;2338;49.602;8.722;2022-10-01T02:39:33;11.20;99.90
4651;DHT22;2338;49.602;8.722;2022-10-01T02:42:21;11.20;99.90
4651;DHT22;2338;49.602;8.722;2022-10-01T02:45:08;11.20;99.90
4651;DHT22;2338;49.602;8.722;2022-10-01T02:47:59;11.30;99.90
4651;DHT22;2338;49.602;8.722;2022-10-01T02:50:48;11.20;99.90
4651;DHT22;2338;49.602;8.722;2022-10-01T02:53:41;11.20;99.90
4651;DHT22;2338;49.602;8.722;2022-10-01T02:56:28;11.20;99.90
4651;DHT22;2338;49.602;8.722;2022-10-01T02:59:42;11.20;99.90
4651;DHT22;2338;49.602;8.722;2022-10-01T03:02:29;11.20;99.90
4651;DHT22;2338;49.602;8.722;2022-10-01T03:05:16;11.20;99.90
4651;DHT22;2338;49.602;8.722;2022-10-01T03:08:03;11.20;99.90
4651;DHT22;2338;49.602;8.722;2022-10-01T03:10:50;11.20;99.90
4651;DHT22;2338;49.602;8.722;2022-10-01T03:13:35;11.30;99.90
4651;DHT22;2338;49.602;8.722;2022-10-01T03:16:21;11.30;99.90
4651;DHT22;2338;49.602;8.722;2022-10-01T03:19:06;11.30;99.90
4651;DHT22;2338;49.602;8.722;2022-10-01T03:21:52;11.40;99.90
4651;DHT22;2338;49.602;8.722;2022-10-01T03:24:39;11.40;99.90
4651;DHT22;2338;49.602;8.722;2022-10-01T03:27:26;11.50;99.90
4651;DHT22;2338;49.602;8.722;2022-10-01T03:30:12;11.50;99.90
4651;DHT22;2338;49.602;8.722;2022-10-01T03:32:58;11.50;99.90
4651;DHT22;2338;49.602;8.722;2022-10-01T03:35:43;11.50;99.90
4651;DHT22;2338;49.602;8.722;2022-10-01T03:38:30;11.50;99.90
4651;DHT22;2338;49.602;8.722;2022-10-01T03:41:15;11.60;99.90
4651;DHT22;2338;49.602;8.722;2022-10-01T03:44:03;11.60;99.90
4651;DHT22;2338;49.602;8.722;2022-10-01T03:46:48;11.60;99.90
4651;DHT22;2338;49.602;8.722;2022-10-01T03:49:35;11.70;99.90
4651;DHT22;2338;49.602;8.722;2022-10-01T03:52:20;11.70;99.90
4651;DHT22;2338;49.602;8.722;2022-10-01T03:55:07;11.70;99.90
4651;DHT22;2338;49.602;8.722;2022-10-01T03:57:52;11.80;99.90
4651;DHT22;2338;49.602;8.722;2022-10-01T04:00:40;11.90;99.90
4651;DHT22;2338;49.602;8.722;2022-10-01T04:03:26;11.90;99.90
4651;DHT22;2338;49.602;8.722;2022-10-01T04:06:12;11.90;99.90
4651;DHT22;2338;49.602;8.722;2022-10-01T04:08:57;12.00;99.90
4651;DHT22;2338;49.602;8.722;2022-10-01T04:11:43;12.00;99.90
4651;DHT22;2338;49.602;8.722;2022-10-01T04:14:29;12.00;99.90
4651;DHT22;2338;49.602;8.722;2022-10-01T04:17:16;11.90;99.90
4651;DHT22;2338;49.602;8.722;2022-10-01T04:20:02;11.90;99.90
4651;DHT22;2338;49.602;8.722;2022-10-01T04:22:48;11.90;99.90
4651;DHT22;2338;49.602;8.722;2022-10-01T04:25:33;11.90;99.90
4651;DHT22;2338;49.602;8.722;2022-10-01T04:28:19;11.80;99.90
4651;DHT22;2338;49.602;8.722;2022-10-01T04:31:04;11.80;99.90
4651;DHT22;2338;49.602;8.722;2022-10-01T04:34:10;11.80;99.90
4651;DHT22;2338;49.602;8.722;2022-10-01T04:36:55;11.70;99.90
4651;DHT22;2338;49.602;8.722;2022-10-01T04:39:41;11.60;99.90
4651;DHT22;2338;49.602;8.722;2022-10-01T04:42:27;11.60;99.90
4651;DHT22;2338;49.602;8.722;2022-10-01T04:45:13;11.50;99.90
4651;DHT22;2338;49.602;8.722;2022-10-01T04:47:59;11.40;99.90
4651;DHT22;2338;49.602;8.722;2022-10-01T04:50:46;11.40;99.90
4651;DHT22;2338;49.602;8.722;2022-10-01T04:53:32;11.40;99.90
4651;DHT22;2338;49.602;8.722;2022-10-01T04:56:18;11.20;99.90
4651;DHT22;2338;49.602;8.722;2022-10-01T04:59:03;11.30;99.90
4651;DHT22;2338;49.602;8.722;2022-10-01T05:01:49;11.20;99.90
4651;DHT22;2338;49.602;8.722;2022-10-01T05:04:35;11.20;99.90
4651;DHT22;2338;49.602;8.722;2022-10-01T05:07:22;11.10;99.90
4651;DHT22;2338;49.602;8.722;2022-10-01T05:10:11;11.00;99.90
4651;DHT22;2338;49.602;8.722;2022-10-01T05:12:57;11.10;99.90
4651;DHT22;2338;49.602;8.722;2022-10-01T05:15:46;11.00;99.90
4651;DHT22;2338;49.602;8.722;2022-10-01T05:18:32;11.10;99.90
4651;DHT22;2338;49.602;8.722;2022-10-01T05:21:18;11.10;99.90
4651;DHT22;2338;49.602;8.722;2022-10-01T05:24:05;11.10;99.90
4651;DHT22;2338;49.602;8.722;2022-10-01T05:26:51;11.10;99.90
4651;DHT22;2338;49.602;8.722;2022-10-01T05:29:38;11.10;99.90
4651;DHT22;2338;49.602;8.722;2022-10-01T05:32:24;11.10;99.90
4651;DHT22;2338;49.602;8.722;2022-10-01T05:35:10;11.20;99.90
4651;DHT22;2338;49.602;8.722;2022-10-01T05:37:57;11.10;99.90
4651;DHT22;2338;49.602;8.722;2022-10-01T05:40:45;11.10;99.90
4651;DHT22;2338;49.602;8.722;2022-10-01T05:43:31;11.20;99.90
4651;DHT22;2338;49.602;8.722;2022-10-01T05:46:16;11.20;99.90
4651;DHT22;2338;49.602;8.722;2022-10-01T05:49:02;11.30;99.90
4651;DHT22;2338;49.602;8.722;2022-10-01T05:51:50;11.20;99.90
4651;DHT22;2338;49.602;8.722;2022-10-01T05:54:36;11.20;99.90
4651;DHT22;2338;49.602;8.722;2022-10-01T05:57:23;11.20;99.90
4651;DHT22;2338;49.602;8.722;2022-10-01T06:00:10;11.10;99.90
4651;DHT22;2338;49.602;8.722;2022-10-01T06:02:59;11.10;99.90
4651;DHT22;2338;49.602;8.722;2022-10-01T06:05:45;11.10;99.90
4651;DHT22;2338;49.602;8.722;2022-10-01T06:08:32;11.10;99.90
4651;DHT22;2338;49.602;8.722;2022-10-01T06:11:18;11.10;99.90
4651;DHT22;2338;49.602;8.722;2022-10-01T06:14:07;11.10;99.90
4651;DHT22;2338;49.602;8.722;2022-10-01T06:16:53;11.00;99.90
4651;DHT22;2338;49.602;8.722;2022-10-01T06:19:39;11.10;99.90
4651;DHT22;2338;49.602;8.722;2022-10-01T06:22:24;11.10;99.90
4651;DHT22;2338;49.602;8.722;2022-10-01T06:25:11;11.20;99.90
4651;DHT22;2338;49.602;8.722;2022-10-01T06:27:59;11.10;99.90
4651;DHT22;2338;49.602;8.722;2022-10-01T06:30:46;11.10;99.90
4651;DHT22;2338;49.602;8.722;2022-10-01T06:33:32;11.00;99.90
4651;DHT22;2338;49.602;8.722;2022-10-01T06:36:18;11.10;99.90
4651;DHT22;2338;49.602;8.722;2022-10-01T06:39:05;11.20;99.90
4651;DHT22;2338;49.602;8.722;2022-10-01T06:41:51;11.10;99.90
4651;DHT22;2338;49.602;8.722;2022-10-01T06:44:37;11.10;99.90
4651;DHT22;2338;49.602;8.722;2022-10-01T06:47:23;11.00;99.90
4651;DHT22;2338;49.602;8.722;2022-10-01T06:50:10;11.10;99.90
4651;DHT22;2338;49.602;8.722;2022-10-01T06:52:56;11.20;99.90
4651;DHT22;2338;49.602;8.722;2022-10-01T06:55:42;11.00;99.90
4651;DHT22;2338;49.602;8.722;2022-10-01T06:58:28;10.90;99.90
4651;DHT22;2338;49.602;8.722;2022-10-01T07:01:14;10.90;99.90
4651;DHT22;2338;49.602;8.722;2022-10-01T07:04:05;10.90;99.90
4651;DHT22;2338;49.602;8.722;2022-10-01T07:06:51;10.90;99.90
4651;DHT22;2338;49.602;8.722;2022-10-01T07:09:36;10.90;99.90
4651;DHT22;2338;49.602;8.722;2022-10-01T07:12:22;10.90;99.90
4651;DHT22;2338;49.602;8.722;2022-10-01T07:15:08;10.90;99.90
4651;DHT22;2338;49.602;8.722;2022-10-01T07:17:54;10.90;99.90
4651;DHT22;2338;49.602;8.722;2022-10-01T07:20:41;10.90;99.90
4651;DHT22;2338;49.602;8.722;2022-10-01T07:23:27;10.90;99.90
4651;DHT22;2338;49.602;8.722;2022-10-01T07:26:12;10.90;99.90
4651;DHT22;2338;49.602;8.722;2022-10-01T07:28:58;11.00;99.90
4651;DHT22;2338;49.602;8.722;2022-10-01T07:31:44;11.00;99.90
4651;DHT22;2338;49.602;8.722;2022-10-01T07:34:30;10.90;99.90
4651;DHT22;2338;49.602;8.722;2022-10-01T07:37:17;10.90;99.90
4651;DHT22;2338;49.602;8.722;2022-10-01T07:40:03;10.90;99.90
4651;DHT22;2338;49.602;8.722;2022-10-01T07:42:52;10.90;99.90
4651;DHT22;2338;49.602;8.722;2022-10-01T07:45:39;11.00;99.90
4651;DHT22;2338;49.602;8.722;2022-10-01T07:48:24;11.00;99.90
4651;DHT22;2338;49.602;8.722;2022-10-01T07:51:10;11.00;99.90
4651;DHT22;2338;49.602;8.722;2022-10-01T07:53:57;11.00;99.90
4651;DHT22;2338;49.602;8.722;2022-10-01T07:56:43;10.90;99.90
4651;DHT22;2338;49.602;8.722;2022-10-01T07:59:29;10.90;99.90
4651;DHT22;2338;49.602;8.722;2022-10-01T08:02:15;10.90;99.90
4651;DHT22;2338;49.602;8.722;2022-10-01T08:05:01;10.90;99.90
4651;DHT22;2338;49.602;8.722;2022-10-01T08:08:04;10.90;99.90
4651;DHT22;2338;49.602;8.722;2022-10-01T08:10:51;10.90;99.90
4651;DHT22;2338;49.602;8.722;2022-10-01T08:13:37;11.00;99.90
4651;DHT22;2338;49.602;8.722;2022-10-01T08:16:23;11.00;99.90
4651;DHT22;2338;49.602;8.722;2022-10-01T08:19:12;11.00;99.90
4651;DHT22;2338;49.602;8.722;2022-10-01T08:21:58;11.10;99.90
4651;DHT22;2338;49.602;8.722;2022-10-01T08:24:44;11.10;99.90
4651;DHT22;2338;49.602;8.722;2022-10-01T08:27:31;11.10;99.90
4651;DHT22;2338;49.602;8.722;2022-10-01T08:30:17;11.10;99.90
4651;DHT22;2338;49.602;8.722;2022-10-01T08:33:02;11.20;99.90
4651;DHT22;2338;49.602;8.722;2022-10-01T08:35:48;11.20;99.90
4651;DHT22;2338;49.602;8.722;2022-10-01T08:38:34;11.20;99.90
4651;DHT22;2338;49.602;8.722;2022-10-01T08:41:29;11.10;99.90
4651;DHT22;2338;49.602;8.722;2022-10-01T08:44:22;11.20;99.90
4651;DHT22;2338;49.602;8.722;2022-10-01T08:47:15;11.20;99.90
4651;DHT22;2338;49.602;8.722;2022-10-01T08:50:06;11.20;99.90
4651;DHT22;2338;49.602;8.722;2022-10-01T08:53:00;11.20;99.90
4651;DHT22;2338;49.602;8.722;2022-10-01T08:55:46;11.10;99.90
4651;DHT22;2338;49.602;8.722;2022-10-01T08:58:34;11.20;99.90
4651;DHT22;2338;49.602;8.722;2022-10-01T09:01:25;11.20;99.90
4651;DHT22;2338;49.602;8.722;2022-10-01T09:04:12;11.10;99.90
4651;DHT22;2338;49.602;8.722;2022-10-01T09:07:12;11.20;99.90
4651;DHT22;2338;49.602;8.722;2022-10-01T09:10:15;11.30;99.90
4651;DHT22;2338;49.602;8.722;2022-10-01T09:13:16;11.30;99.90
4651;DHT22;2338;49.602;8.722;2022-10-01T09:16:11;11.30;99.90
4651;DHT22;2338;49.602;8.722;2022-10-01T09:19:11;11.30;99.90
4651;DHT22;2338;49.602;8.722;2022-10-01T09:22:03;11.30;99.90
4651;DHT22;2338;49.602;8.722;2022-10-01T09:24:57;11.20;99.90
4651;DHT22;2338;49.602;8.722;2022-10-01T09:27:45;11.20;99.90
4651;DHT22;2338;49.602;8.722;2022-10-01T09:30:32;11.30;99.90
4651;DHT22;2338;49.602;8.722;2022-10-01T09:33:19;11.20;99.90
4651;DHT22;2338;49.602;8.722;2022-10-01T09:36:13;11.30;99.90
4651;DHT22;2338;49.602;8.722;2022-10-01T09:39:09;11.20;99.90
4651;DHT22;2338;49.602;8.722;2022-10-01T09:41:57;11.20;99.90
4651;DHT22;2338;49.602;8.722;2022-10-01T09:44:43;11.30;99.90
4651;DHT22;2338;49.602;8.722;2022-10-01T09:47:31;11.20;99.90
4651;DHT22;2338;49.602;8.722;2022-10-01T09:50:21;11.30;99.90
4651;DHT22;2338;49.602;8.722;2022-10-01T09:53:14;11.30;99.90
4651;DHT22;2338;49.602;8.722;2022-10-01T09:56:08;11.20;99.90
4651;DHT22;2338;49.602;8.722;2022-10-01T09:59:00;11.30;99.90
4651;DHT22;2338;49.602;8.722;2022-10-01T10:01:50;11.20;99.90
4651;DHT22;2338;49.602;8.722;2022-10-01T10:04:37;11.20;99.90
4651;DHT22;2338;49.602;8.722;2022-10-01T10:07:23;11.30;99.90
4651;DHT22;2338;49.602;8.722;2022-10-01T10:10:17;11.30;99.90
4651;DHT22;2338;49.602;8.722;2022-10-01T10:13:13;11.30;99.90
4651;DHT22;2338;49.602;8.722;2022-10-01T10:16:18;11.30;99.90
4651;DHT22;2338;49.602;8.722;2022-10-01T10:19:15;11.30;99.90
4651;DHT22;2338;49.602;8.722;2022-10-01T10:22:10;11.30;99.90
4651;DHT22;2338;49.602;8.722;2022-10-01T10:24:56;11.30;99.90
4651;DHT22;2338;49.602;8.722;2022-10-01T10:27:52;11.40;99.90
4651;DHT22;2338;49.602;8.722;2022-10-01T10:30:41;11.40;99.90
4651;DHT22;2338;49.602;8.722;2022-10-01T10:33:27;11.40;99.90
4651;DHT22;2338;49.602;8.722;2022-10-01T10:36:14;11.40;99.90
4651;DHT22;2338;49.602;8.722;2022-10-01T10:39:02;11.50;99.90
4651;DHT22;2338;49.602;8.722;2022-10-01T10:41:48;11.50;99.90
4651;DHT22;2338;49.602;8.722;2022-10-01T10:44:37;11.50;99.90
4651;DHT22;2338;49.602;8.722;2022-10-01T10:47:23;11.50;99.90
4651;DHT22;2338;49.602;8.722;2022-10-01T10:50:22;11.60;99.90
4651;DHT22;2338;49.602;8.722;2022-10-01T10:53:19;11.60;99.90
4651;DHT22;2338;49.602;8.722;2022-10-01T10:56:06;11.60;99.90
4651;DHT22;2338;49.602;8.722;2022-10-01T10:59:05;11.50;99.90
4651;DHT22;2338;49.602;8.722;2022-10-01T11:01:53;11.50;99.90
4651;DHT22;2338;49.602;8.722;2022-10-01T11:04:41;11.60;99.90
4651;DHT22;2338;49.602;8.722;2022-10-01T11:07:27;11.70;99.90
4651;DHT22;2338;49.602;8.722;2022-10-01T11:10:24;11.80;99.90
4651;DHT22;2338;49.602;8.722;2022-10-01T11:13:25;11.80;99.90
4651;DHT22;2338;49.602;8.722;2022-10-01T11:16:31;11.80;99.90
4651;DHT22;2338;49.602;8.722;2022-10-01T11:19:40;11.90;99.90
4651;DHT22;2338;49.602;8.722;2022-10-01T11:22:38;11.90;99.90
4651;DHT22;2338;49.602;8.722;2022-10-01T11:25:35;11.90;99.90
4651;DHT22;2338;49.602;8.722;2022-10-01T11:28:33;11.90;99.90
4651;DHT22;2338;49.602;8.722;2022-10-01T11:31:28;11.90;99.90
4651;DHT22;2338;49.602;8.722;2022-10-01T11:34:36;11.90;99.90
4651;DHT22;2338;49.602;8.722;2022-10-01T11:37:39;12.00;99.90
4651;DHT22;2338;49.602;8.722;2022-10-01T11:40:31;12.00;99.90
4651;DHT22;2338;49.602;8.722;2022-10-01T11:43:21;12.00;99.90
4651;DHT22;2338;49.602;8.722;2022-10-01T11:46:11;12.00;99.90
4651;DHT22;2338;49.602;8.722;2022-10-01T11:49:02;12.10;99.90
4651;DHT22;2338;49.602;8.722;2022-10-01T11:51:55;12.10;99.90
4651;DHT22;2338;49.602;8.722;2022-10-01T11:54:55;12.10;99.90
4651;DHT22;2338;49.602;8.722;2022-10-01T11:58:11;12.20;99.90
4651;DHT22;2338;49.602;8.722;2022-10-01T12:01:19;12.20;99.90
4651;DHT22;2338;49.602;8.722;2022-10-01T12:04:16;12.30;99.90
4651;DHT22;2338;49.602;8.722;2022-10-01T12:07:10;12.30;99.90
4651;DHT22;2338;49.602;8.722;2022-10-01T12:10:03;12.40;99.90
4651;DHT22;2338;49.602;8.722;2022-10-01T12:12:55;12.40;99.90
4651;DHT22;2338;49.602;8.722;2022-10-01T12:15:44;12.50;99.90
4651;DHT22;2338;49.602;8.722;2022-10-01T12:18:39;12.40;99.90
4651;DHT22;2338;49.602;8.722;2022-10-01T12:21:33;12.40;99.90
4651;DHT22;2338;49.602;8.722;2022-10-01T12:24:26;12.40;99.90
4651;DHT22;2338;49.602;8.722;2022-10-01T12:27:31;12.30;99.90
4651;DHT22;2338;49.602;8.722;2022-10-01T12:30:19;12.40;99.90
4651;DHT22;2338;49.602;8.722;2022-10-01T12:33:33;12.40;99.90
4651;DHT22;2338;49.602;8.722;2022-10-01T12:36:27;12.40;99.90
4651;DHT22;2338;49.602;8.722;2022-10-01T12:39:28;12.50;99.90
4651;DHT22;2338;49.602;8.722;2022-10-01T12:42:48;12.50;99.90
4651;DHT22;2338;49.602;8.722;2022-10-01T12:45:44;12.50;99.90
4651;DHT22;2338;49.602;8.722;2022-10-01T12:48:37;12.50;99.90
4651;DHT22;2338;49.602;8.722;2022-10-01T12:51:40;12.50;99.90
4651;DHT22;2338;49.602;8.722;2022-10-01T12:54:43;12.50;99.90
4651;DHT22;2338;49.602;8.722;2022-10-01T12:57:39;12.60;99.90
4651;DHT22;2338;49.602;8.722;2022-10-01T13:00:34;12.60;99.90
4651;DHT22;2338;49.602;8.722;2022-10-01T13:03:32;12.60;99.90
4651;DHT22;2338;49.602;8.722;2022-10-01T13:06:28;12.60;99.90
4651;DHT22;2338;49.602;8.722;2022-10-01T13:09:19;12.60;99.90
4651;DHT22;2338;49.602;8.722;2022-10-01T13:12:20;12.60;99.90
4651;DHT22;2338;49.602;8.722;2022-10-01T13:15:19;12.60;99.90
4651;DHT22;2338;49.602;8.722;2022-10-01T13:18:12;12.70;99.90
4651;DHT22;2338;49.602;8.722;2022-10-01T13:21:07;12.80;99.90
4651;DHT22;2338;49.602;8.722;2022-10-01T13:23:59;12.80;99.90
4651;DHT22;2338;49.602;8.722;2022-10-01T13:26:51;12.80;99.90
4651;DHT22;2338;49.602;8.722;2022-10-01T13:29:49;12.80;99.90
4651;DHT22;2338;49.602;8.722;2022-10-01T13:32:48;12.90;99.90
4651;DHT22;2338;49.602;8.722;2022-10-01T13:35:39;13.00;99.90
4651;DHT22;2338;49.602;8.722;2022-10-01T13:38:32;13.00;99.90
4651;DHT22;2338;49.602;8.722;2022-10-01T13:41:25;13.10;99.90
4651;DHT22;2338;49.602;8.722;2022-10-01T13:44:21;13.20;99.90
4651;DHT22;2338;49.602;8.722;2022-10-01T13:47:07;13.20;99.90
4651;DHT22;2338;49.602;8.722;2022-10-01T13:49:59;13.20;99.90
4651;DHT22;2338;49.602;8.722;2022-10-01T13:52:48;13.30;99.90
4651;DHT22;2338;49.602;8.722;2022-10-01T13:55:41;13.30;99.90
4651;DHT22;2338;49.602;8.722;2022-10-01T13:58:36;13.40;99.90
4651;DHT22;2338;49.602;8.722;2022-10-01T14:01:28;13.50;99.90
4651;DHT22;2338;49.602;8.722;2022-10-01T14:04:19;13.40;99.90
4651;DHT22;2338;49.602;8.722;2022-10-01T14:07:14;13.50;99.90
4651;DHT22;2338;49.602;8.722;2022-10-01T14:10:02;13.50;99.90
4651;DHT22;2338;49.602;8.722;2022-10-01T14:12:48;13.50;99.90
4651;DHT22;2338;49.602;8.722;2022-10-01T14:15:52;13.60;99.90
4651;DHT22;2338;49.602;8.722;2022-10-01T14:18:47;13.60;99.90
4651;DHT22;2338;49.602;8.722;2022-10-01T14:21:42;13.70;99.90
4651;DHT22;2338;49.602;8.722;2022-10-01T14:24:42;13.70;99.90
4651;DHT22;2338;49.602;8.722;2022-10-01T14:27:37;13.70;99.90
4651;DHT22;2338;49.602;8.722;2022-10-01T14:30:31;13.70;99.90
4651;DHT22;2338;49.602;8.722;2022-10-01T14:33:45;13.60;99.90
4651;DHT22;2338;49.602;8.722;2022-10-01T14:36:40;13.70;99.90
4651;DHT22;2338;49.602;8.722;2022-10-01T14:39:27;13.70;99.90
4651;DHT22;2338;49.602;8.722;2022-10-01T14:42:15;13.60;99.90
4651;DHT22;2338;49.602;8.722;2022-10-01T14:45:14;13.60;99.90
4651;DHT22;2338;49.602;8.722;2022-10-01T14:48:00;13.60;99.90
4651;DHT22;2338;49.602;8.722;2022-10-01T14:50:48;13.60;99.90
4651;DHT22;2338;49.602;8.722;2022-10-01T14:53:36;13.70;99.90
4651;DHT22;2338;49.602;8.722;2022-10-01T14:56:22;13.70;99.90
4651;DHT22;2338;49.602;8.722;2022-10-01T14:59:16;13.60;99.90
4651;DHT22;2338;49.602;8.722;2022-10-01T15:02:18;13.70;99.90
4651;DHT22;2338;49.602;8.722;2022-10-01T15:05:16;13.70;99.90
4651;DHT22;2338;49.602;8.722;2022-10-01T15:08:10;13.70;99.90
4651;DHT22;2338;49.602;8.722;2022-10-01T15:10:58;13.70;99.90
4651;DHT22;2338;49.602;8.722;2022-10-01T15:13:47;13.80;99.90
4651;DHT22;2338;49.602;8.722;2022-10-01T15:16:34;13.80;99.90
4651;DHT22;2338;49.602;8.722;2022-10-01T15:19:22;13.90;99.90
4651;DHT22;2338;49.602;8.722;2022-10-01T15:22:09;13.90;99.90
4651;DHT22;2338;49.602;8.722;2022-10-01T15:24:58;13.90;99.90
4651;DHT22;2338;49.602;8.722;2022-10-01T15:27:45;14.00;99.90
4651;DHT22;2338;49.602;8.722;2022-10-01T15:30:35;14.00;99.90
4651;DHT22;2338;49.602;8.722;2022-10-01T15:33:24;14.00;99.90
4651;DHT22;2338;49.602;8.722;2022-10-01T15:36:16;14.00;99.90
4651;DHT22;2338;49.602;8.722;2022-10-01T15:39:08;14.10;99.90
4651;DHT22;2338;49.602;8.722;2022-10-01T15:42:07;14.00;99.90
4651;DHT22;2338;49.602;8.722;2022-10-01T15:45:20;14.10;99.90
4651;DHT22;2338;49.602;8.722;2022-10-01T15:48:25;14.10;99.90
4651;DHT22;2338;49.602;8.722;2022-10-01T15:51:18;14.10;99.90
4651;DHT22;2338;49.602;8.722;2022-10-01T15:54:07;14.10;99.90
4651;DHT22;2338;49.602;8.722;2022-10-01T15:56:55;14.10;99.90
4651;DHT22;2338;49.602;8.722;2022-10-01T15:59:40;14.10;99.90
4651;DHT22;2338;49.602;8.722;2022-10-01T16:02:28;14.10;99.90
4651;DHT22;2338;49.602;8.722;2022-10-01T16:05:18;14.20;99.90
4651;DHT22;2338;49.602;8.722;2022-10-01T16:08:13;14.20;99.90
4651;DHT22;2338;49.602;8.722;2022-10-01T16:11:22;14.20;99.90
4651;DHT22;2338;49.602;8.722;2022-10-01T16:14:27;14.20;99.90
4651;DHT22;2338;49.602;8.722;2022-10-01T16:17:27;14.10;99.90
4651;DHT22;2338;49.602;8.722;2022-10-01T16:20:35;14.20;99.90
4651;DHT22;2338;49.602;8.722;2022-10-01T16:23:42;14.20;99.90
4651;DHT22;2338;49.602;8.722;2022-10-01T16:26:32;14.20;99.90
4651;DHT22;2338;49.602;8.722;2022-10-01T16:29:21;14.10;99.90
4651;DHT22;2338;49.602;8.722;2022-10-01T16:32:10;14.10;99.90
4651;DHT22;2338;49.602;8.722;2022-10-01T16:35:15;14.00;99.90
4651;DHT22;2338;49.602;8.722;2022-10-01T16:38:02;13.90;99.90
4651;DHT22;2338;49.602;8.722;2022-10-01T16:40:52;13.90;99.90
4651;DHT22;2338;49.602;8.722;2022-10-01T16:43:38;14.00;99.90
4651;DHT22;2338;49.602;8.722;2022-10-01T16:46:23;13.90;99.90
4651;DHT22;2338;49.602;8.722;2022-10-01T16:49:11;13.90;99.90
4651;DHT22;2338;49.602;8.722;2022-10-01T16:51:58;13.90;99.90
4651;DHT22;2338;49.602;8.722;2022-10-01T16:54:44;13.80;99.90
4651;DHT22;2338;49.602;8.722;2022-10-01T16:57:32;13.90;99.90
4651;DHT22;2338;49.602;8.722;2022-10-01T17:00:19;13.80;99.90
4651;DHT22;2338;49.602;8.722;2022-10-01T17:03:08;13.70;99.90
4651;DHT22;2338;49.602;8.722;2022-10-01T17:05:56;13.70;99.90
4651;DHT22;2338;49.602;8.722;2022-10-01T17:08:42;13.70;99.90
4651;DHT22;2338;49.602;8.722;2022-10-01T17:11:28;13.70;99.90
4651;DHT22;2338;49.602;8.722;2022-10-01T17:14:17;13.70;99.90
4651;DHT22;2338;49.602;8.722;2022-10-01T17:17:04;13.70;99.90
4651;DHT22;2338;49.602;8.722;2022-10-01T17:19:50;13.70;99.90
4651;DHT22;2338;49.602;8.722;2022-10-01T17:22:36;13.80;99.90
4651;DHT22;2338;49.602;8.722;2022-10-01T17:25:24;13.80;99.90
4651;DHT22;2338;49.602;8.722;2022-10-01T17:28:13;13.80;99.90
4651;DHT22;2338;49.602;8.722;2022-10-01T17:31:05;13.80;99.90
4651;DHT22;2338;49.602;8.722;2022-10-01T17:33:51;13.70;99.90
4651;DHT22;2338;49.602;8.722;2022-10-01T17:36:38;13.70;99.90
4651;DHT22;2338;49.602;8.722;2022-10-01T17:39:24;13.80;99.90
4651;DHT22;2338;49.602;8.722;2022-10-01T17:42:10;13.80;99.90
4651;DHT22;2338;49.602;8.722;2022-10-01T17:44:58;13.80;99.90
4651;DHT22;2338;49.602;8.722;2022-10-01T17:47:46;13.80;99.90
4651;DHT22;2338;49.602;8.722;2022-10-01T17:50:33;13.80;99.90
4651;DHT22;2338;49.602;8.722;2022-10-01T17:53:21;13.90;99.90
4651;DHT22;2338;49.602;8.722;2022-10-01T17:56:08;13.90;99.90
4651;DHT22;2338;49.602;8.722;2022-10-01T17:58:54;13.90;99.90
4651;DHT22;2338;49.602;8.722;2022-10-01T18:01:39;13.90;99.90
4651;DHT22;2338;49.602;8.722;2022-10-01T18:04:26;13.90;99.90
4651;DHT22;2338;49.602;8.722;2022-10-01T18:07:13;13.90;99.90
4651;DHT22;2338;49.602;8.722;2022-10-01T18:09:58;13.90;99.90
4651;DHT22;2338;49.602;8.722;2022-10-01T18:12:44;13.90;99.90
4651;DHT22;2338;49.602;8.722;2022-10-01T18:15:30;13.90;99.90
4651;DHT22;2338;49.602;8.722;2022-10-01T18:18:15;13.90;99.90
4651;DHT22;2338;49.602;8.722;2022-10-01T18:21:05;13.80;99.90
4651;DHT22;2338;49.602;8.722;2022-10-01T18:23:51;13.80;99.90
4651;DHT22;2338;49.602;8.722;2022-10-01T18:26:37;13.80;99.90
4651;DHT22;2338;49.602;8.722;2022-10-01T18:29:25;13.80;99.90
4651;DHT22;2338;49.602;8.722;2022-10-01T18:32:15;13.90;99.90